GCLA Información de aeropuertos

Información de pistas
Pista 01 Longitud 7218 ft Ancho 148 ft
Elevación 103 ft Umbral 0 ft Rumbo 359
Pista 19 Longitud 7218 ft Ancho 148 ft
Elevación 65 ft Umbral 0 ft Rumbo 179
Frecuencias
Tipo APP Nombre CANARIAS A Frequencia 126.1 MHZ
Tipo ATIS Nombre INFO Frequencia 118.6 MHZ
Tipo GND Nombre GND Frequencia 121.8 MHZ
Tipo TWR Nombre TWR Frequencia 118.9 MHZ
Radioayudas
Tipo DME Nombre La Palma Frequencia 112400 KHZ
Tipo NDB Nombre La Palma Frequencia 389 KHZ
Información meteorológica y NOTAM
ADDS - METARS form results

(1737 UTC 19 January 2021)
Data provider http://aviationweather.gov/metar/data/
 
METAR text: GCLA 191730Z 00000KT 9999 SCT034 19/12 Q1023
Conditions at: GCLA (LA PALMA AIRPORT, ES) observed 1730 UTC 19 January 2021
Temperature: 19.0°C (66°F)
Dewpoint: 12.0°C (54°F) [RH = 64%]
Pressure (altimeter): 30.21 inches Hg (1023.0 mb)
Winds: calm
Visibility: 6 or more miles (10+ km)
Ceiling: at least 12,000 feet AGL
Clouds: scattered clouds at 3400 feet AGL
Weather: no significant weather observed at this time

METAR text: GCLA 191700Z VRB02KT 9999 SCT034 19/12 Q1023
Conditions at: GCLA (LA PALMA AIRPORT, ES) observed 1700 UTC 19 January 2021
Temperature: 19.0°C (66°F)
Dewpoint: 12.0°C (54°F) [RH = 64%]
Pressure (altimeter): 30.21 inches Hg (1023.0 mb)
Winds: variable direction winds at 2 MPH (2 knots; 1.0 m/s)
Visibility: 6 or more miles (10+ km)
Ceiling: at least 12,000 feet AGL
Clouds: scattered clouds at 3400 feet AGL
Weather: no significant weather observed at this time

Forecast for: GCLA (LA PALMA AIRPORT, ES)
Text: TAF GCLA 191400Z 1915/2015 32006KT 9999 SCT035 TX20/2014Z TN16/2007Z
Forecast period: 1500 UTC 19 January 2021 to 1500 UTC 20 January 2021
Forecast type: FROM: standard forecast or significant change
Winds: from the NW (320 degrees) at 7 MPH (6 knots; 3.1 m/s)
Visibility: 6 or more miles (10+ km)
Ceiling: at least 12,000 feet AGL
Clouds: scattered clouds at 3500 feet AGL
Weather: no significant weather forecast for this period
Text: PROB30
Forecast period: 1500 to 1700 UTC 19 January 2021
Forecast type: TEMPORARY: The following changes expected for less than half the time period
Winds: from the ESE (120 degrees) at 12 MPH (10 knots; 5.1 m/s)
Visibility: missing
Ceiling: unknown
Clouds: missing
Weather: no significant weather forecast for this period